Time;durP1;ratioP1;P1;durP2;ratioP2;P2;SDS_P1;SDS_P2;PMS_P1;PMS_P2;Temp;Humidity;BMP_temperature;BMP_pressure;BME280_temperature;BME280_humidity;BME280_pressure;Samples;Min_cycle;Max_cycle;Signal;HPM_P1;HPM_P2
2021/05/14 00:01:08;;;;;;;3.20;1.90;;;;;;;;;;5131137;28;20494;-52
2021/05/14 00:03:35;;;;;;;3.77;2.00;;;;;;;;;;5137990;28;20446;-55
2021/05/14 00:06:03;;;;;;;3.60;2.03;;;;;;;;;;5137347;28;20480;-50
2021/05/14 00:08:30;;;;;;;3.70;1.70;;;;;;;;;;5137702;28;20411;-53
2021/05/14 00:11:31;;;;;;;3.57;1.83;;;;;;;;;;5138038;28;20434;-47
2021/05/14 00:13:59;;;;;;;3.47;2.07;;;;;;;;;;5137806;28;20468;-51
2021/05/14 00:16:26;;;;;;;3.70;1.93;;;;;;;;;;5137809;28;20450;-55
2021/05/14 00:18:53;;;;;;;3.77;1.50;;;;;;;;;;5137826;28;20455;-53
2021/05/14 00:21:21;;;;;;;2.80;1.60;;;;;;;;;;5137741;28;20474;-51
2021/05/14 00:23:48;;;;;;;4.60;2.60;;;;;;;;;;5137718;28;20442;-55
2021/05/14 00:26:33;;;;;;;5.13;2.60;;;;;;;;;;5137392;28;20868;-57
2021/05/14 00:29:00;;;;;;;3.50;2.30;;;;;;;;;;5137181;28;20487;-52
2021/05/14 00:31:27;;;;;;;3.87;2.13;;;;;;;;;;5137522;28;20454;-55
2021/05/14 00:33:57;;;;;;;2.80;1.57;;;;;;;;;;5137293;28;20461;-52
2021/05/14 00:36:25;;;;;;;4.10;1.50;;;;;;;;;;5137135;28;20508;-48
2021/05/14 00:38:52;;;;;;;4.57;2.13;;;;;;;;;;5136682;28;20454;-53
2021/05/14 00:41:19;;;;;;;3.60;1.80;;;;;;;;;;5136882;28;20490;-51
2021/05/14 00:43:46;;;;;;;3.70;2.37;;;;;;;;;;5136661;28;20532;-54
2021/05/14 00:46:14;;;;;;;4.13;2.40;;;;;;;;;;5137072;28;20458;-50
2021/05/14 00:49:03;;;;;;;3.33;1.67;;;;;;;;;;5137032;28;20446;-53
2021/05/14 00:51:31;;;;;;;4.70;1.97;;;;;;;;;;5136998;28;20464;-54
2021/05/14 00:53:57;;;;;;;5.47;2.43;;;;;;;;;;5136666;28;20465;-54
2021/05/14 00:56:44;;;;;;;5.37;2.60;;;;;;;;;;5136865;28;20439;-50
2021/05/14 00:59:11;;;;;;;7.10;2.40;;;;;;;;;;5136922;28;20465;-53
2021/05/14 01:01:38;;;;;;;4.67;2.40;;;;;;;;;;5135807;28;20494;-49
2021/05/14 01:04:16;;;;;;;5.10;2.67;;;;;;;;;;5136101;28;20746;-53
2021/05/14 01:06:44;;;;;;;4.00;2.57;;;;;;;;;;5136380;28;20550;-52
2021/05/14 01:09:11;;;;;;;3.20;2.00;;;;;;;;;;5136405;28;20519;-57
2021/05/14 01:11:43;;;;;;;5.60;2.50;;;;;;;;;;5136845;28;20485;-54
2021/05/14 01:14:10;;;;;;;5.50;2.27;;;;;;;;;;5136705;28;20445;-51
2021/05/14 01:16:37;;;;;;;5.93;2.50;;;;;;;;;;5136306;28;20473;-54
2021/05/14 01:19:05;;;;;;;4.00;2.60;;;;;;;;;;5137044;28;20453;-53
2021/05/14 01:21:33;;;;;;;4.20;1.80;;;;;;;;;;5136650;28;20478;-53
2021/05/14 01:24:00;;;;;;;5.67;2.47;;;;;;;;;;5136712;28;20446;-55
2021/05/14 01:26:52;;;;;;;7.53;2.80;;;;;;;;;;5136158;28;20454;-51
2021/05/14 01:29:19;;;;;;;4.97;2.90;;;;;;;;;;5135758;28;20465;-55
2021/05/14 01:31:45;;;;;;;4.73;2.50;;;;;;;;;;5136551;28;20467;-53
2021/05/14 01:34:47;;;;;;;4.70;2.73;;;;;;;;;;5135971;28;20466;-53
2021/05/14 01:37:15;;;;;;;4.33;2.90;;;;;;;;;;5135818;28;20469;-50
2021/05/14 01:39:42;;;;;;;5.70;3.07;;;;;;;;;;5134689;28;20566;-52
2021/05/14 01:42:32;;;;;;;5.60;3.70;;;;;;;;;;5135590;28;20478;-52
2021/05/14 01:44:59;;;;;;;4.70;3.80;;;;;;;;;;5129676;28;20572;-59
2021/05/14 01:47:26;;;;;;;4.50;3.10;;;;;;;;;;5116638;28;20529;-50
2021/05/14 01:49:52;;;;;;;4.07;3.53;;;;;;;;;;5133359;28;20446;-57
2021/05/14 01:52:20;;;;;;;5.17;3.93;;;;;;;;;;5136328;28;20434;-46
2021/05/14 01:55:19;;;;;;;5.97;4.27;;;;;;;;;;5135989;28;20434;-55
2021/05/14 01:57:46;;;;;;;4.30;2.97;;;;;;;;;;5115440;28;20555;-54
2021/05/14 02:00:13;;;;;;;9.83;2.67;;;;;;;;;;5114865;28;20499;-54
2021/05/14 02:05:44;;;;;;;4.50;2.77;;;;;;;;;;5127682;28;20413;-55
2021/05/14 02:08:12;;;;;;;4.97;3.17;;;;;;;;;;5130616;28;20455;-57
2021/05/14 02:10:44;;;;;;;5.80;2.77;;;;;;;;;;5129093;28;20474;-54
2021/05/14 02:13:10;;;;;;;5.07;3.40;;;;;;;;;;5120965;28;20455;-53
2021/05/14 02:15:39;;;;;;;5.10;2.57;;;;;;;;;;5127786;28;20445;-59
2021/05/14 02:18:23;;;;;;;3.80;2.77;;;;;;;;;;5131731;28;20557;-56
2021/05/14 02:20:50;;;;;;;5.33;3.07;;;;;;;;;;5127479;28;20470;-55
2021/05/14 02:23:18;;;;;;;6.10;3.50;;;;;;;;;;5117804;28;20487;-55
2021/05/14 02:26:19;;;;;;;7.47;3.60;;;;;;;;;;5126767;28;20769;-58
2021/05/14 02:28:46;;;;;;;4.87;3.07;;;;;;;;;;5138041;28;20489;-50
2021/05/14 02:31:13;;;;;;;6.10;3.30;;;;;;;;;;5139591;28;20454;-59
2021/05/14 02:36:44;;;;;;;4.30;2.53;;;;;;;;;;5129672;28;20487;-56
2021/05/14 02:39:12;;;;;;;9.67;3.10;;;;;;;;;;5121670;28;20517;-60
2021/05/14 02:41:44;;;;;;;4.27;2.53;;;;;;;;;;5139311;28;20477;-54
2021/05/14 02:44:10;;;;;;;6.00;3.60;;;;;;;;;;5139424;28;20457;-57
2021/05/14 02:46:37;;;;;;;3.57;2.50;;;;;;;;;;5139317;28;20478;-56
2021/05/14 02:49:20;;;;;;;5.87;2.90;;;;;;;;;;5139705;28;20444;-51
2021/05/14 02:51:47;;;;;;;5.50;3.40;;;;;;;;;;5139934;28;20438;-56
2021/05/14 02:54:15;;;;;;;6.87;3.30;;;;;;;;;;5140045;28;20484;-51
2021/05/14 02:56:41;;;;;;;4.40;2.93;;;;;;;;;;5139210;28;20446;-56
2021/05/14 02:59:08;;;;;;;5.50;3.20;;;;;;;;;;5136123;28;20450;-57
2021/05/14 03:01:45;;;;;;;5.57;3.37;;;;;;;;;;5118351;28;20487;-53
2021/05/14 03:04:12;;;;;;;8.87;3.00;;;;;;;;;;5121481;28;20455;-60
2021/05/14 03:06:38;;;;;;;4.37;2.90;;;;;;;;;;5139122;28;20518;-56
2021/05/14 03:09:06;;;;;;;3.83;2.43;;;;;;;;;;5137656;28;20453;-56
2021/05/14 03:11:36;;;;;;;4.10;2.73;;;;;;;;;;5119119;28;20439;-57
2021/05/14 03:14:07;;;;;;;5.60;3.40;;;;;;;;;;5118752;28;20489;-56
2021/05/14 03:16:34;;;;;;;9.40;3.10;;;;;;;;;;5135380;28;20758;-56
2021/05/14 03:19:01;;;;;;;5.33;2.53;;;;;;;;;;5138955;28;20461;-55
2021/05/14 03:21:35;;;;;;;4.90;3.10;;;;;;;;;;5138906;28;20485;-55
2021/05/14 03:24:02;;;;;;;3.40;2.40;;;;;;;;;;5120996;28;20486;-51
2021/05/14 03:26:29;;;;;;;4.73;2.60;;;;;;;;;;5117422;28;20458;-55
2021/05/14 03:29:11;;;;;;;6.47;2.67;;;;;;;;;;5118296;28;20462;-57
2021/05/14 03:31:37;;;;;;;7.23;2.97;;;;;;;;;;5118326;28;20458;-54
2021/05/14 03:34:04;;;;;;;3.63;2.27;;;;;;;;;;5117789;28;20432;-57
2021/05/14 03:36:31;;;;;;;3.60;2.27;;;;;;;;;;5117873;28;20443;-55
2021/05/14 03:38:58;;;;;;;3.10;2.00;;;;;;;;;;5118026;28;20451;-58
2021/05/14 03:41:32;;;;;;;3.90;2.40;;;;;;;;;;5117267;28;20475;-52
2021/05/14 03:43:59;;;;;;;3.30;2.07;;;;;;;;;;5118122;28;20451;-55
2021/05/14 03:46:28;;;;;;;3.47;1.97;;;;;;;;;;5118402;28;20506;-57
2021/05/14 03:49:03;;;;;;;2.90;1.67;;;;;;;;;;5097985;28;20501;-57
2021/05/14 03:51:30;;;;;;;3.50;2.13;;;;;;;;;;5097584;28;20458;-53
2021/05/14 03:53:59;;;;;;;4.30;2.47;;;;;;;;;;5097708;28;20440;-53
2021/05/14 03:56:51;;;;;;;5.20;2.67;;;;;;;;;;5113311;28;20479;-56
2021/05/14 03:59:17;;;;;;;5.50;2.10;;;;;;;;;;5133129;28;20481;-54
2021/05/14 04:01:45;;;;;;;3.67;2.60;;;;;;;;;;5138446;28;20470;-56
2021/05/14 04:04:17;;;;;;;5.70;3.20;;;;;;;;;;5138435;28;20483;-51
2021/05/14 04:06:45;;;;;;;7.53;3.60;;;;;;;;;;5138898;28;20459;-60
2021/05/14 04:09:12;;;;;;;5.73;3.30;;;;;;;;;;5123154;28;20459;-55
2021/05/14 04:11:55;;;;;;;6.70;3.70;;;;;;;;;;5117421;28;20518;-53
2021/05/14 04:17:08;;;;;;;5.70;3.60;;;;;;;;;;5117913;28;20516;-57
2021/05/14 04:19:35;;;;;;;6.10;3.70;;;;;;;;;;5116944;28;20470;-54
2021/05/14 04:22:03;;;;;;;5.23;3.67;;;;;;;;;;5130994;28;20494;-52
2021/05/14 04:24:31;;;;;;;6.17;3.30;;;;;;;;;;5138126;28;20517;-53
2021/05/14 04:26:59;;;;;;;5.43;3.00;;;;;;;;;;5138085;28;20481;-49
2021/05/14 04:29:26;;;;;;;4.20;3.30;;;;;;;;;;5138153;28;20434;-51
2021/05/14 04:32:04;;;;;;;6.03;3.63;;;;;;;;;;5124378;28;20552;-52
2021/05/14 04:34:32;;;;;;;6.20;4.07;;;;;;;;;;5125600;28;20605;-54
2021/05/14 04:36:59;;;;;;;5.37;3.63;;;;;;;;;;5137505;28;20454;-55
2021/05/14 04:39:44;;;;;;;4.70;3.00;;;;;;;;;;5137330;28;20443;-53
2021/05/14 04:42:11;;;;;;;11.47;3.07;;;;;;;;;;5137631;28;20474;-54
2021/05/14 04:44:41;;;;;;;6.40;4.40;;;;;;;;;;5137385;28;20519;-53
2021/05/14 04:47:26;;;;;;;4.57;3.00;;;;;;;;;;5137047;28;20446;-57
2021/05/14 04:49:54;;;;;;;9.60;3.20;;;;;;;;;;5136410;28;20569;-55
2021/05/14 04:52:22;;;;;;;5.97;2.60;;;;;;;;;;5136802;28;20474;-52
2021/05/14 04:55:06;;;;;;;10.53;3.80;;;;;;;;;;5137275;28;20473;-52
2021/05/14 04:57:34;;;;;;;6.43;3.03;;;;;;;;;;5130558;28;20537;-52
2021/05/14 05:00:00;;;;;;;8.00;3.10;;;;;;;;;;5121401;28;20509;-54
2021/05/14 05:05:32;;;;;;;7.90;3.13;;;;;;;;;;5116391;28;20552;-50
2021/05/14 05:07:58;;;;;;;4.27;2.93;;;;;;;;;;5116312;28;20469;-57
2021/05/14 05:10:25;;;;;;;6.30;3.37;;;;;;;;;;5115627;28;20454;-55
2021/05/14 05:12:52;;;;;;;4.57;3.10;;;;;;;;;;5115888;28;20559;-52
2021/05/14 05:15:19;;;;;;;7.33;3.33;;;;;;;;;;5115994;28;20435;-55
2021/05/14 05:17:58;;;;;;;4.53;2.90;;;;;;;;;;5132227;28;20460;-54
2021/05/14 05:20:25;;;;;;;5.27;3.43;;;;;;;;;;5122598;28;20451;-54
2021/05/14 05:22:53;;;;;;;4.90;3.20;;;;;;;;;;5115781;28;20491;-52
2021/05/14 05:25:20;;;;;;;10.30;3.60;;;;;;;;;;5115241;28;20455;-51
2021/05/14 05:28:03;;;;;;;5.47;3.20;;;;;;;;;;5115787;28;20460;-56
2021/05/14 05:30:49;;;;;;;5.90;2.90;;;;;;;;;;5115302;28;20438;-54
2021/05/14 05:33:16;;;;;;;5.30;3.33;;;;;;;;;;5115537;28;20440;-48
2021/05/14 05:35:43;;;;;;;7.57;3.97;;;;;;;;;;5128827;28;20546;-56
2021/05/14 05:38:30;;;;;;;5.80;3.20;;;;;;;;;;5137186;28;20450;-52
2021/05/14 05:40:57;;;;;;;6.30;3.00;;;;;;;;;;5135873;28;20455;-54
2021/05/14 05:43:29;;;;;;;6.27;3.33;;;;;;;;;;5124186;28;20474;-56
2021/05/14 05:46:05;;;;;;;5.23;3.60;;;;;;;;;;5136695;28;20446;-56
2021/05/14 05:48:32;;;;;;;7.60;3.17;;;;;;;;;;5135661;28;20460;-54
2021/05/14 05:50:59;;;;;;;5.10;3.33;;;;;;;;;;5133075;28;20490;-56
2021/05/14 05:53:25;;;;;;;4.97;2.77;;;;;;;;;;5113885;28;20439;-59
2021/05/14 05:55:52;;;;;;;5.20;2.80;;;;;;;;;;5121933;28;20447;-53
2021/05/14 05:58:35;;;;;;;3.40;2.40;;;;;;;;;;5115024;28;20455;-54
2021/05/14 06:01:02;;;;;;;4.67;2.77;;;;;;;;;;5115679;28;20503;-55
2021/05/14 06:03:29;;;;;;;5.40;3.00;;;;;;;;;;5120578;28;20478;-54
2021/05/14 06:05:57;;;;;;;9.90;3.03;;;;;;;;;;5123648;28;20482;-49
2021/05/14 06:08:25;;;;;;;9.60;4.20;;;;;;;;;;5118145;28;20464;-57
2021/05/14 06:10:53;;;;;;;4.57;3.07;;;;;;;;;;5134551;28;20430;-55
2021/05/14 06:13:44;;;;;;;3.97;2.90;;;;;;;;;;5126388;28;20457;-52
2021/05/14 06:16:13;;;;;;;6.93;2.97;;;;;;;;;;5130199;28;20458;-52
2021/05/14 06:18:44;;;;;;;4.00;2.10;;;;;;;;;;5127987;28;20502;-59
2021/05/14 06:21:13;;;;;;;6.13;2.97;;;;;;;;;;5114546;28;20469;-59
2021/05/14 06:23:40;;;;;;;5.80;3.13;;;;;;;;;;5114036;28;20479;-54
2021/05/14 06:26:14;;;;;;;6.20;2.80;;;;;;;;;;5114856;28;20493;-57
2021/05/14 06:28:41;;;;;;;6.83;3.30;;;;;;;;;;5115886;28;20629;-56
2021/05/14 06:31:07;;;;;;;5.03;2.13;;;;;;;;;;5135229;28;20433;-56
2021/05/14 06:33:37;;;;;;;3.23;2.07;;;;;;;;;;5131654;28;20509;-51
2021/05/14 06:36:04;;;;;;;5.33;2.80;;;;;;;;;;5127293;28;20446;-59
2021/05/14 06:38:33;;;;;;;4.70;2.40;;;;;;;;;;5118373;28;20449;-49
2021/05/14 06:41:07;;;;;;;4.07;2.20;;;;;;;;;;5134976;28;20504;-53
2021/05/14 06:43:42;;;;;;;6.40;3.10;;;;;;;;;;5131620;28;20489;-57
2021/05/14 06:46:10;;;;;;;6.90;3.00;;;;;;;;;;5135613;28;20414;-55
2021/05/14 06:48:38;;;;;;;7.60;3.87;;;;;;;;;;5118593;28;20459;-55
2021/05/14 06:51:05;;;;;;;4.83;2.30;;;;;;;;;;5128081;28;20490;-54
2021/05/14 06:53:57;;;;;;;3.70;2.13;;;;;;;;;;5134928;28;20446;-57
2021/05/14 06:56:31;;;;;;;5.40;2.20;;;;;;;;;;5131591;28;20523;-52
2021/05/14 06:59:00;;;;;;;12.53;3.30;;;;;;;;;;5137278;28;20433;-54
2021/05/14 07:04:31;;;;;;;4.80;2.53;;;;;;;;;;5117074;28;20465;-58
2021/05/14 07:06:58;;;;;;;5.83;2.50;;;;;;;;;;5117331;28;20462;-56
2021/05/14 07:09:25;;;;;;;5.13;2.40;;;;;;;;;;5111135;28;20925;-53
2021/05/14 07:11:52;;;;;;;7.27;2.80;;;;;;;;;;5118734;28;20451;-61
2021/05/14 07:14:19;;;;;;;5.37;2.00;;;;;;;;;;5117705;28;20439;-51
2021/05/14 07:16:45;;;;;;;7.87;2.73;;;;;;;;;;5116696;28;20497;-54
2021/05/14 07:19:19;;;;;;;6.07;3.10;;;;;;;;;;5117902;28;20454;-50
2021/05/14 07:22:12;;;;;;;4.40;2.20;;;;;;;;;;5112876;28;20474;-58
2021/05/14 07:24:40;;;;;;;6.33;1.90;;;;;;;;;;5102502;28;20474;-58
2021/05/14 07:27:07;;;;;;;9.50;2.53;;;;;;;;;;5117649;28;20440;-60
2021/05/14 07:32:37;;;;;;;6.10;2.70;;;;;;;;;;5126885;28;20465;-60
2021/05/14 07:35:05;;;;;;;4.73;2.50;;;;;;;;;;5136803;28;20450;-55
2021/05/14 07:38:09;;;;;;;4.20;1.70;;;;;;;;;;5137215;28;20446;-55
2021/05/14 07:40:37;;;;;;;5.10;2.53;;;;;;;;;;5137316;28;20483;-57
2021/05/14 07:43:04;;;;;;;4.80;2.47;;;;;;;;;;5138543;27;20535;-55
2021/05/14 07:45:53;;;;;;;6.30;2.93;;;;;;;;;;5137603;28;20434;-59
2021/05/14 07:48:20;;;;;;;4.90;2.40;;;;;;;;;;5118985;28;20459;-55
2021/05/14 07:50:49;;;;;;;3.50;2.03;;;;;;;;;;5125059;28;20471;-59
2021/05/14 07:53:16;;;;;;;4.50;2.47;;;;;;;;;;5130030;28;20451;-56
2021/05/14 07:55:53;;;;;;;6.37;2.70;;;;;;;;;;5122320;28;20455;-54
2021/05/14 07:58:23;;;;;;;7.23;3.60;;;;;;;;;;5123908;28;20435;-60
2021/05/14 08:00:51;;;;;;;4.67;2.23;;;;;;;;;;5116674;28;20443;-59
2021/05/14 08:03:18;;;;;;;3.60;1.83;;;;;;;;;;5130743;28;20489;-56
2021/05/14 08:05:47;;;;;;;3.60;1.60;;;;;;;;;;5116420;28;20613;-54
2021/05/14 08:08:17;;;;;;;5.17;2.30;;;;;;;;;;5115856;28;20479;-55
2021/05/14 08:10:46;;;;;;;6.33;2.40;;;;;;;;;;5115440;28;20459;-54
2021/05/14 08:13:32;;;;;;;5.03;2.40;;;;;;;;;;5115808;28;20459;-55
2021/05/14 08:16:01;;;;;;;4.83;2.07;;;;;;;;;;5115112;28;20474;-51
2021/05/14 08:18:28;;;;;;;4.50;1.97;;;;;;;;;;5116600;28;20554;-58
2021/05/14 08:21:29;;;;;;;7.03;2.97;;;;;;;;;;5136502;28;20431;-56
2021/05/14 08:23:59;;;;;;;5.23;2.43;;;;;;;;;;5136835;27;20450;-52
2021/05/14 08:26:27;;;;;;;3.63;2.33;;;;;;;;;;5135482;28;20929;-55
2021/05/14 08:28:54;;;;;;;7.00;2.40;;;;;;;;;;5134652;28;20601;-61
2021/05/14 08:31:21;;;;;;;6.87;1.77;;;;;;;;;;5135317;28;20523;-58
2021/05/14 08:34:06;;;;;;;4.97;2.50;;;;;;;;;;5134961;28;20434;-58
2021/05/14 08:36:34;;;;;;;4.53;1.87;;;;;;;;;;5135552;28;20464;-59
2021/05/14 08:39:01;;;;;;;3.40;1.70;;;;;;;;;;5135827;28;20458;-55
2021/05/14 08:41:53;;;;;;;3.73;1.63;;;;;;;;;;5135378;28;20469;-55
2021/05/14 08:44:21;;;;;;;4.47;2.00;;;;;;;;;;5132852;28;20482;-52
2021/05/14 08:46:49;;;;;;;6.23;2.50;;;;;;;;;;5122493;28;20430;-54
2021/05/14 08:49:23;;;;;;;3.43;1.80;;;;;;;;;;5133730;28;20482;-58
2021/05/14 08:51:52;;;;;;;7.43;1.97;;;;;;;;;;5133873;27;20544;-50
2021/05/14 08:54:19;;;;;;;6.60;2.00;;;;;;;;;;5155171;27;20445;-60
2021/05/14 08:56:47;;;;;;;2.70;1.57;;;;;;;;;;5156501;27;20513;-54
2021/05/14 08:59:14;;;;;;;4.37;2.10;;;;;;;;;;5140082;27;20434;-57
2021/05/14 09:01:41;;;;;;;3.10;1.90;;;;;;;;;;5134320;28;20454;-54
2021/05/14 09:04:11;;;;;;;4.00;2.00;;;;;;;;;;5144434;27;20472;-59
2021/05/14 09:06:38;;;;;;;4.90;1.87;;;;;;;;;;5134953;28;20458;-59
2021/05/14 09:09:06;;;;;;;4.83;1.90;;;;;;;;;;5134681;28;20510;-57
2021/05/14 09:11:38;;;;;;;4.83;1.77;;;;;;;;;;5127883;28;20469;-58
2021/05/14 09:14:05;;;;;;;3.40;1.40;;;;;;;;;;5130035;28;20454;-54
2021/05/14 09:16:39;;;;;;;4.67;2.20;;;;;;;;;;5134235;28;20476;-62
2021/05/14 09:19:07;;;;;;;7.90;1.80;;;;;;;;;;5134256;28;20528;-60
2021/05/14 09:21:34;;;;;;;4.07;1.50;;;;;;;;;;5134236;28;20442;-54
2021/05/14 09:24:26;;;;;;;4.90;2.20;;;;;;;;;;5134800;27;20435;-59
2021/05/14 09:26:52;;;;;;;5.00;2.10;;;;;;;;;;5125906;28;20597;-55
2021/05/14 09:29:36;;;;;;;7.10;4.57;;;;;;;;;;5135089;28;20426;-52
2021/05/14 09:32:29;;;;;;;3.87;1.60;;;;;;;;;;5117564;28;20459;-59
2021/05/14 09:34:58;;;;;;;4.90;1.73;;;;;;;;;;5114036;28;20443;-53
2021/05/14 09:37:26;;;;;;;5.40;1.60;;;;;;;;;;5113413;28;20446;-58
2021/05/14 09:40:08;;;;;;;2.90;1.10;;;;;;;;;;5113663;28;20518;-58
2021/05/14 09:42:36;;;;;;;4.53;1.37;;;;;;;;;;5130957;28;20466;-52
2021/05/14 09:45:22;;;;;;;4.50;1.80;;;;;;;;;;5127797;28;20452;-50
2021/05/14 09:47:59;;;;;;;4.43;1.57;;;;;;;;;;5123307;28;20442;-57
2021/05/14 09:50:50;;;;;;;6.37;1.33;;;;;;;;;;5134113;28;20497;-60
2021/05/14 09:53:18;;;;;;;3.50;1.37;;;;;;;;;;5122511;28;20431;-56
2021/05/14 09:55:48;;;;;;;3.00;1.30;;;;;;;;;;5129053;28;20525;-56
2021/05/14 09:58:19;;;;;;;2.70;1.50;;;;;;;;;;5116139;28;20439;-58
2021/05/14 10:00:46;;;;;;;3.20;1.60;;;;;;;;;;5119120;28;20509;-58
2021/05/14 10:03:16;;;;;;;3.00;1.50;;;;;;;;;;5135182;28;20528;-59
2021/05/14 10:06:07;;;;;;;3.27;1.50;;;;;;;;;;5116017;28;20436;-50
2021/05/14 10:08:52;;;;;;;5.20;1.30;;;;;;;;;;5113964;28;20498;-54
2021/05/14 10:11:25;;;;;;;4.43;1.80;;;;;;;;;;5129051;28;20539;-55
2021/05/14 10:13:53;;;;;;;3.60;1.57;;;;;;;;;;5133334;28;20465;-55
2021/05/14 10:16:21;;;;;;;4.63;1.40;;;;;;;;;;5118581;28;20476;-56
2021/05/14 10:18:52;;;;;;;3.60;1.60;;;;;;;;;;5114296;28;20458;-58
2021/05/14 10:21:39;;;;;;;3.30;1.40;;;;;;;;;;5141337;28;20466;-53
2021/05/14 10:24:10;;;;;;;4.60;1.70;;;;;;;;;;5144776;28;20521;-52
2021/05/14 10:26:38;;;;;;;11.23;4.23;;;;;;;;;;5132580;28;20517;-50
2021/05/14 10:29:12;;;;;;;3.20;1.57;;;;;;;;;;5136333;28;20454;-55
2021/05/14 10:31:44;;;;;;;5.03;1.90;;;;;;;;;;5153055;27;20461;-57
2021/05/14 10:34:14;;;;;;;3.67;2.23;;;;;;;;;;5157000;27;20465;-56
2021/05/14 10:36:44;;;;;;;5.20;2.10;;;;;;;;;;5157051;27;20455;-55
2021/05/14 10:39:27;;;;;;;3.93;1.97;;;;;;;;;;5157447;27;20445;-59
2021/05/14 10:42:06;;;;;;;3.67;1.60;;;;;;;;;;5141506;27;20449;-59
2021/05/14 10:45:01;;;;;;;3.77;1.93;;;;;;;;;;5158233;27;20434;-55
2021/05/14 10:47:46;;;;;;;3.70;1.60;;;;;;;;;;5110900;27;20445;-55
2021/05/14 10:50:47;;;;;;;3.63;1.90;;;;;;;;;;5159210;27;20459;-57
2021/05/14 10:53:25;;;;;;;3.03;1.50;;;;;;;;;;5158689;27;20440;-60
2021/05/14 10:56:30;;;;;;;3.53;1.97;;;;;;;;;;5152296;27;20481;-59
2021/05/14 10:59:11;;;;;;;3.40;1.43;;;;;;;;;;5140034;27;20688;-54
2021/05/14 11:01:47;;;;;;;4.47;1.80;;;;;;;;;;5155651;27;20463;-56
2021/05/14 11:04:33;;;;;;;6.50;2.13;;;;;;;;;;5147321;27;20449;-51
2021/05/14 11:07:00;;;;;;;3.40;1.80;;;;;;;;;;5148194;27;20456;-57
2021/05/14 11:09:44;;;;;;;2.97;1.40;;;;;;;;;;5145050;27;20453;-59
2021/05/14 11:12:12;;;;;;;5.10;1.67;;;;;;;;;;5143591;27;20480;-56
2021/05/14 11:14:44;;;;;;;3.67;1.50;;;;;;;;;;5144869;27;20472;-59
2021/05/14 11:17:22;;;;;;;2.93;1.37;;;;;;;;;;5157492;27;20483;-60
2021/05/14 11:19:50;;;;;;;3.10;1.50;;;;;;;;;;5153528;27;20471;-58
2021/05/14 11:22:26;;;;;;;3.60;1.87;;;;;;;;;;5152718;27;20514;-59
2021/05/14 11:25:14;;;;;;;10.87;9.77;;;;;;;;;;5148633;27;20735;-56
2021/05/14 11:27:42;;;;;;;7.73;2.10;;;;;;;;;;5154533;27;20545;-53
2021/05/14 11:30:15;;;;;;;3.30;1.80;;;;;;;;;;5158235;27;20433;-61
2021/05/14 11:32:48;;;;;;;2.57;1.10;;;;;;;;;;5154296;27;20475;-54
2021/05/14 11:35:15;;;;;;;2.90;1.40;;;;;;;;;;5154746;27;20453;-57
2021/05/14 11:37:50;;;;;;;4.30;1.20;;;;;;;;;;5157120;27;20457;-56
2021/05/14 11:40:49;;;;;;;5.33;1.67;;;;;;;;;;5156446;27;20461;-58
2021/05/14 11:43:16;;;;;;;5.37;1.77;;;;;;;;;;5137945;27;20611;-53
2021/05/14 11:45:50;;;;;;;4.00;1.83;;;;;;;;;;5135193;28;20476;-61
2021/05/14 11:48:20;;;;;;;4.80;2.57;;;;;;;;;;5125893;28;20459;-56
2021/05/14 11:50:49;;;;;;;4.87;2.13;;;;;;;;;;5119420;28;20458;-55
2021/05/14 11:53:17;;;;;;;3.27;1.00;;;;;;;;;;5135997;28;20555;-57
2021/05/14 11:55:47;;;;;;;3.37;1.03;;;;;;;;;;5136489;28;20482;-60
2021/05/14 11:58:16;;;;;;;3.80;1.20;;;;;;;;;;5136342;28;20451;-51
2021/05/14 12:01:02;;;;;;;4.10;1.80;;;;;;;;;;5121752;28;20453;-57
2021/05/14 12:03:33;;;;;;;7.23;2.50;;;;;;;;;;5132811;28;20512;-55
2021/05/14 12:06:24;;;;;;;6.67;1.50;;;;;;;;;;5137469;28;20458;-61
2021/05/14 12:08:51;;;;;;;4.13;2.30;;;;;;;;;;5120281;28;20434;-56
2021/05/14 12:11:19;;;;;;;4.93;1.20;;;;;;;;;;5115192;28;20459;-54
2021/05/14 12:17:20;;;;;;;3.40;1.27;;;;;;;;;;5125362;28;20485;-57
2021/05/14 12:19:49;;;;;;;2.60;1.30;;;;;;;;;;5129137;28;20454;-59
2021/05/14 12:22:16;;;;;;;3.20;1.30;;;;;;;;;;5130685;28;20538;-59
2021/05/14 12:24:44;;;;;;;3.43;1.97;;;;;;;;;;5130941;28;20486;-61
2021/05/14 12:27:20;;;;;;;2.87;0.93;;;;;;;;;;5116113;28;20486;-60
2021/05/14 12:29:48;;;;;;;2.53;1.10;;;;;;;;;;5130084;28;20461;-62
2021/05/14 12:32:20;;;;;;;2.80;1.23;;;;;;;;;;5136938;28;20435;-55
2021/05/14 12:34:54;;;;;;;2.97;1.40;;;;;;;;;;5136692;28;20488;-56
2021/05/14 12:37:21;;;;;;;2.77;1.00;;;;;;;;;;5115748;28;20518;-59
2021/05/14 12:39:49;;;;;;;2.93;0.90;;;;;;;;;;5132530;28;20491;-59
2021/05/14 12:42:27;;;;;;;2.03;0.80;;;;;;;;;;5136346;28;20530;-60
2021/05/14 12:44:55;;;;;;;3.13;1.17;;;;;;;;;;5125519;28;20463;-50
2021/05/14 12:47:33;;;;;;;2.70;1.10;;;;;;;;;;5116780;28;20463;-57
2021/05/14 12:50:02;;;;;;;3.17;1.50;;;;;;;;;;5130150;28;20469;-54
2021/05/14 12:52:32;;;;;;;3.13;1.30;;;;;;;;;;5134486;28;20502;-55
2021/05/14 12:55:02;;;;;;;2.23;1.10;;;;;;;;;;5136878;28;20458;-51
2021/05/14 12:57:42;;;;;;;2.23;1.00;;;;;;;;;;5124189;28;20435;-55
2021/05/14 13:00:15;;;;;;;3.30;1.10;;;;;;;;;;5147200;27;20477;-55
2021/05/14 13:02:54;;;;;;;3.60;1.27;;;;;;;;;;5137444;28;20541;-56
2021/05/14 13:05:32;;;;;;;2.80;1.40;;;;;;;;;;5157184;27;20514;-53
2021/05/14 13:08:00;;;;;;;2.73;1.30;;;;;;;;;;5157390;27;20469;-60
2021/05/14 13:10:41;;;;;;;3.07;1.50;;;;;;;;;;5157440;27;20437;-52
2021/05/14 13:13:09;;;;;;;2.73;0.90;;;;;;;;;;5158258;27;20485;-57
2021/05/14 13:15:55;;;;;;;4.37;1.27;;;;;;;;;;5138789;27;20465;-55
2021/05/14 13:18:43;;;;;;;3.20;1.30;;;;;;;;;;5145159;27;20460;-52
2021/05/14 13:21:27;;;;;;;4.20;1.80;;;;;;;;;;5157566;27;20477;-59
2021/05/14 13:24:02;;;;;;;3.27;1.20;;;;;;;;;;5152477;27;20500;-58
2021/05/14 13:26:32;;;;;;;4.63;1.20;;;;;;;;;;5142590;27;20454;-53
2021/05/14 13:29:09;;;;;;;2.10;0.80;;;;;;;;;;5136579;28;20466;-59
2021/05/14 13:31:37;;;;;;;3.00;1.10;;;;;;;;;;5137053;28;20518;-58
2021/05/14 13:34:06;;;;;;;3.80;1.10;;;;;;;;;;5123003;28;20492;-54
2021/05/14 13:36:34;;;;;;;2.60;1.07;;;;;;;;;;5097107;28;20479;-55
2021/05/14 13:39:01;;;;;;;2.77;1.00;;;;;;;;;;5115647;28;20550;-50
2021/05/14 13:41:33;;;;;;;3.13;2.07;;;;;;;;;;5098833;28;20434;-55
2021/05/14 13:44:02;;;;;;;1.90;0.80;;;;;;;;;;5115630;28;20503;-55
2021/05/14 13:46:38;;;;;;;3.33;1.13;;;;;;;;;;5117624;28;20520;-57
2021/05/14 13:49:21;;;;;;;2.37;1.10;;;;;;;;;;5115395;28;20463;-60
2021/05/14 13:51:52;;;;;;;7.83;1.03;;;;;;;;;;5095482;28;20453;-50
2021/05/14 13:54:19;;;;;;;5.00;1.50;;;;;;;;;;5115395;28;20464;-54
2021/05/14 13:56:54;;;;;;;6.67;1.00;;;;;;;;;;5115205;28;20447;-56
2021/05/14 13:59:21;;;;;;;2.90;1.00;;;;;;;;;;5107388;28;20443;-59
2021/05/14 14:01:48;;;;;;;3.43;1.27;;;;;;;;;;5096919;28;20432;-60
2021/05/14 14:07:26;;;;;;;2.97;1.30;;;;;;;;;;5130841;28;20497;-60
2021/05/14 14:13:00;;;;;;;5.07;1.93;;;;;;;;;;5133750;28;20456;-53
2021/05/14 14:15:29;;;;;;;2.33;0.80;;;;;;;;;;5135904;28;20478;-51
2021/05/14 14:18:24;;;;;;;19.40;9.47;;;;;;;;;;5140175;28;20446;-59
2021/05/14 14:21:04;;;;;;;2.67;1.10;;;;;;;;;;5140055;28;20485;-60
2021/05/14 14:23:52;;;;;;;1.90;0.83;;;;;;;;;;5125310;28;20483;-53
2021/05/14 14:26:22;;;;;;;2.00;0.80;;;;;;;;;;5117962;28;20459;-58
2021/05/14 14:28:54;;;;;;;2.70;1.10;;;;;;;;;;5118668;28;20451;-58
2021/05/14 14:31:40;;;;;;;4.90;1.37;;;;;;;;;;5118466;28;20447;-56
2021/05/14 14:34:07;;;;;;;2.50;0.90;;;;;;;;;;5118220;28;20458;-55
2021/05/14 14:36:36;;;;;;;2.50;1.03;;;;;;;;;;5135953;28;20457;-55
2021/05/14 14:39:07;;;;;;;2.80;1.00;;;;;;;;;;5137814;28;20454;-59
2021/05/14 14:41:47;;;;;;;2.70;0.80;;;;;;;;;;5131745;28;20498;-48
2021/05/14 14:44:15;;;;;;;3.10;1.40;;;;;;;;;;5138199;28;20492;-56
2021/05/14 14:46:45;;;;;;;2.80;1.13;;;;;;;;;;5138616;28;20454;-54
2021/05/14 14:49:18;;;;;;;2.63;1.10;;;;;;;;;;5139537;28;20460;-60
2021/05/14 14:51:52;;;;;;;2.40;1.10;;;;;;;;;;5131377;28;20530;-60
2021/05/14 14:54:21;;;;;;;4.30;0.83;;;;;;;;;;5138074;28;20725;-59
2021/05/14 14:57:35;;;;;;;3.13;1.63;;;;;;;;;;5137876;28;20446;-59
2021/05/14 15:00:02;;;;;;;2.63;1.23;;;;;;;;;;5139404;28;20484;-58
2021/05/14 15:02:30;;;;;;;4.53;1.23;;;;;;;;;;5139693;28;20474;-58
2021/05/14 15:05:00;;;;;;;2.77;1.00;;;;;;;;;;5128521;28;20565;-55
2021/05/14 15:07:31;;;;;;;5.43;1.77;;;;;;;;;;5123181;28;20458;-59
2021/05/14 15:10:01;;;;;;;5.63;1.50;;;;;;;;;;5118684;28;20552;-56
2021/05/14 15:13:03;;;;;;;5.20;1.33;;;;;;;;;;5137387;28;20457;-52
2021/05/14 15:15:30;;;;;;;2.57;1.33;;;;;;;;;;5127591;28;20438;-54
2021/05/14 15:17:57;;;;;;;3.20;1.60;;;;;;;;;;5136677;28;20434;-55
2021/05/14 15:20:27;;;;;;;6.53;1.40;;;;;;;;;;5124641;28;20438;-56
2021/05/14 15:22:56;;;;;;;3.20;1.10;;;;;;;;;;5123023;28;20486;-53
2021/05/14 15:25:25;;;;;;;5.30;1.00;;;;;;;;;;5137918;28;20478;-56
2021/05/14 15:27:57;;;;;;;4.00;1.50;;;;;;;;;;5130722;28;20472;-56
2021/05/14 15:30:24;;;;;;;2.27;1.10;;;;;;;;;;5128028;28;20483;-54
2021/05/14 15:32:52;;;;;;;4.10;1.00;;;;;;;;;;5137678;28;20511;-57
2021/05/14 15:35:30;;;;;;;3.20;1.40;;;;;;;;;;5133914;28;20443;-55
2021/05/14 15:37:58;;;;;;;3.50;1.50;;;;;;;;;;5129953;28;20468;-56
2021/05/14 15:40:25;;;;;;;3.70;1.30;;;;;;;;;;5134385;28;20482;-52
2021/05/14 15:42:52;;;;;;;3.50;1.90;;;;;;;;;;5127856;28;20498;-54